Time;durP1;ratioP1;P1;durP2;ratioP2;P2;SDS_P1;SDS_P2;PMS_P1;PMS_P2;Temp;Humidity;BMP_temperature;BMP_pressure;BME280_temperature;BME280_humidity;BME280_pressure;Samples;Min_cycle;Max_cycle;Signal;HPM_P1;HPM_P2
2021/03/27 05:11:14;;;;;;;0.70;0.70;;;9.90;99.00;;;;;;5682597;23;20231;-77
2021/03/27 05:13:45;;;;;;;0.70;0.70;;;9.90;99.30;;;;;;4992494;28;20223;-75
2021/03/27 05:16:16;;;;;;;0.73;0.73;;;9.90;99.20;;;;;;4992178;28;20694;-76
2021/03/27 05:18:48;;;;;;;0.80;0.80;;;10.00;99.20;;;;;;4992672;28;20204;-76
2021/03/27 05:21:39;;;;;;;0.70;0.70;;;10.00;99.10;;;;;;4992320;28;20235;-76
2021/03/27 05:24:20;;;;;;;0.70;0.70;;;10.10;99.00;;;;;;4993113;28;20204;-77
2021/03/27 05:26:56;;;;;;;0.60;0.60;;;10.30;98.80;;;;;;4992920;28;20204;-76
2021/03/27 05:29:51;;;;;;;0.77;0.77;;;10.40;98.50;;;;;;4985194;28;20719;-75
2021/03/27 05:32:35;;;;;;;0.70;0.70;;;10.50;98.40;;;;;;4975745;28;20225;-73
2021/03/27 05:35:13;;;;;;;0.70;0.70;;;10.60;97.80;;;;;;4972349;28;20291;-73
2021/03/27 05:37:54;;;;;;;0.70;0.70;;;10.80;97.40;;;;;;4972586;28;20665;-73
2021/03/27 05:41:01;;;;;;;0.60;0.60;;;11.30;99.90;;;;;;4972811;28;20189;-73
2021/03/27 05:44:20;;;;;;;0.70;0.70;;;11.20;96.90;;;;;;4972585;28;20256;-73
2021/03/27 05:47:21;;;;;;;0.75;0.75;;;11.50;96.00;;;;;;4972242;28;20673;-74
2021/03/27 05:50:14;;;;;;;0.60;0.60;;;11.70;95.60;;;;;;4972482;28;20674;-74
2021/03/27 05:53:08;;;;;;;0.70;0.70;;;11.80;95.00;;;;;;4975574;28;20748;-74
2021/03/27 05:55:54;;;;;;;0.60;0.60;;;12.20;99.90;;;;;;4953525;28;20232;-74
2021/03/27 05:58:44;;;;;;;0.60;0.60;;;12.10;94.90;;;;;;4975966;28;20263;-74
2021/03/27 06:01:40;;;;;;;0.60;0.60;;;12.20;95.00;;;;;;4975762;28;20228;-74
2021/03/27 06:04:34;;;;;;;0.63;0.63;;;12.30;95.60;;;;;;4975858;28;20271;-74
2021/03/27 06:07:43;;;;;;;0.50;0.50;;;12.30;95.60;;;;;;4972984;28;20251;-74
2021/03/27 06:10:20;;;;;;;0.50;0.50;;;12.40;99.90;;;;;;4975699;28;20204;-73
2021/03/27 06:13:02;;;;;;;0.60;0.60;;;12.40;95.70;;;;;;4975747;28;20212;-74
2021/03/27 06:16:00;;;;;;;0.68;0.68;;;12.40;95.30;;;;;;4975268;28;20266;-76
2021/03/27 06:19:08;;;;;;;0.70;0.70;;;12.40;95.30;;;;;;4950968;28;20223;-75
2021/03/27 06:21:46;;;;;;;0.60;0.60;;;12.40;95.10;;;;;;4975370;28;20705;-75
2021/03/27 06:24:49;;;;;;;0.50;0.50;;;12.50;95.20;;;;;;4975140;28;20211;-75
2021/03/27 06:27:33;;;;;;;0.60;0.60;;;12.50;94.80;;;;;;4915568;29;20210;-75
2021/03/27 06:30:22;;;;;;;0.60;0.60;;;12.60;94.80;;;;;;4970621;28;20212;-75
2021/03/27 06:33:19;;;;;;;0.50;0.50;;;12.80;94.70;;;;;;4975263;28;20670;-75
2021/03/27 06:36:01;;;;;;;0.50;0.50;;;12.90;94.50;;;;;;4975030;28;20205;-74
2021/03/27 06:39:10;;;;;;;0.40;0.40;;;13.10;94.40;;;;;;4975028;28;20259;-74
2021/03/27 06:42:00;;;;;;;0.50;0.50;;;13.10;93.60;;;;;;4974719;28;20291;-75
2021/03/27 06:44:50;;;;;;;0.40;0.40;;;13.10;94.30;;;;;;4975002;28;20205;-74
2021/03/27 06:47:47;;;;;;;0.60;0.60;;;13.00;94.10;;;;;;4975481;28;20232;-74
2021/03/27 06:50:43;;;;;;;0.60;0.60;;;13.00;99.90;;;;;;4974809;28;20299;-75
2021/03/27 06:53:23;;;;;;;0.60;0.60;;;13.00;93.90;;;;;;4974763;28;20278;-75
2021/03/27 06:56:06;;;;;;;0.60;0.60;;;12.70;94.10;;;;;;4974704;28;20236;-72
2021/03/27 06:59:10;;;;;;;0.50;0.50;;;12.90;94.20;;;;;;4974805;28;20208;-75
2021/03/27 07:02:13;;;;;;;0.50;0.50;;;13.00;94.30;;;;;;4974399;28;20638;-75
2021/03/27 07:05:16;;;;;;;0.40;0.40;;;13.00;92.90;;;;;;4961604;28;20307;-75
2021/03/27 07:08:10;;;;;;;0.50;0.50;;;13.00;93.00;;;;;;4980058;28;20574;-75
2021/03/27 07:11:34;;;;;;;0.40;0.40;;;13.40;92.60;;;;;;4980142;28;20310;-75
2021/03/27 07:14:49;;;;;;;0.60;0.60;;;13.50;92.20;;;;;;4973353;28;20283;-73
2021/03/27 07:17:42;;;;;;;0.40;0.40;;;13.60;92.20;;;;;;4913799;29;20277;-73
2021/03/27 07:20:33;;;;;;;0.50;0.50;;;13.60;94.80;;;;;;4979759;28;20207;-74
2021/03/27 07:23:34;;;;;;;0.50;0.50;;;13.60;94.80;;;;;;4983344;28;20204;-74
2021/03/27 07:26:37;;;;;;;0.50;0.50;;;13.60;94.70;;;;;;4982213;28;20199;-75
2021/03/27 07:29:56;;;;;;;0.60;0.60;;;13.60;95.20;;;;;;4984068;28;20227;-74
2021/03/27 07:32:37;;;;;;;0.50;0.50;;;13.70;96.50;;;;;;4982243;28;20697;-75
2021/03/27 07:35:20;;;;;;;0.70;0.70;;;13.50;99.10;;;;;;4982354;28;20220;-75
2021/03/27 07:38:18;;;;;;;0.50;0.50;;;13.30;99.70;;;;;;4991751;28;20204;-74
2021/03/27 07:40:59;;;;;;;0.50;0.50;;;13.10;99.90;;;;;;4992382;28;20227;-74
2021/03/27 07:44:16;;;;;;;0.50;0.50;;;12.70;99.90;;;;;;4992548;28;20211;-75
2021/03/27 07:47:15;;;;;;;0.60;0.60;;;12.50;98.00;;;;;;4986637;28;20204;-74
2021/03/27 07:50:30;;;;;;;0.70;0.70;;;12.00;99.90;;;;;;4989176;28;20213;-75
2021/03/27 07:53:28;;;;;;;0.75;0.75;;;11.60;99.90;;;;;;4971762;28;20598;-75
2021/03/27 07:56:34;;;;;;;0.70;0.70;;;11.20;99.90;;;;;;4973945;28;20283;-76
2021/03/27 07:59:23;;;;;;;0.90;0.90;;;10.90;99.90;;;;;;4972888;28;20204;-76
2021/03/27 08:01:59;;;;;;;0.70;0.70;;;10.90;99.90;;;;;;4972883;28;20291;-75
2021/03/27 08:05:24;;;;;;;0.70;0.70;;;10.70;99.90;;;;;;4972832;28;20211;-75
2021/03/27 08:08:07;;;;;;;0.80;0.80;;;10.60;99.90;;;;;;4972852;28;20263;-75
2021/03/27 08:10:56;;;;;;;0.68;0.68;;;10.50;99.90;;;;;;4973245;28;20295;-75
2021/03/27 08:13:50;;;;;;;0.70;0.70;;;10.70;99.90;;;;;;4972828;28;20673;-75
2021/03/27 08:16:44;;;;;;;0.70;0.70;;;10.70;99.90;;;;;;4972033;28;20212;-76
2021/03/27 08:19:48;;;;;;;0.60;0.60;;;10.80;99.90;;;;;;4972859;28;20208;-73
2021/03/27 08:22:47;;;;;;;0.80;0.80;;;10.90;99.90;;;;;;4977185;28;20513;-75
2021/03/27 08:25:18;;;;;;;0.70;0.70;;;11.00;99.90;;;;;;4981350;28;20189;-76
2021/03/27 08:28:33;;;;;;;0.60;0.60;;;11.10;99.90;;;;;;4983382;28;20212;-75
2021/03/27 08:31:33;;;;;;;0.60;0.60;;;11.10;99.90;;;;;;4923814;29;20470;-75
2021/03/27 08:34:30;;;;;;;0.70;0.70;;;11.30;99.90;;;;;;4930184;29;20222;-77
2021/03/27 08:37:16;;;;;;;0.60;0.60;;;11.50;99.90;;;;;;4972007;28;20204;-75
2021/03/27 08:40:23;;;;;;;0.70;0.70;;;11.60;99.90;;;;;;4972104;28;20204;-74
2021/03/27 08:43:26;;;;;;;0.60;0.60;;;11.70;99.90;;;;;;4978949;28;20197;-74
2021/03/27 08:46:37;;;;;;;0.50;0.50;;;11.90;99.90;;;;;;4980570;28;20210;-74
2021/03/27 08:49:33;;;;;;;0.60;0.60;;;11.90;99.90;;;;;;4984813;28;20571;-74
2021/03/27 08:52:26;;;;;;;0.70;0.70;;;12.00;99.90;;;;;;4989548;28;20282;-74
2021/03/27 08:55:29;;;;;;;0.60;0.60;;;12.00;99.90;;;;;;4990023;28;20255;-73
2021/03/27 08:58:31;;;;;;;0.80;0.80;;;10.60;99.90;;;;;;4958096;28;20207;-75
2021/03/27 09:01:39;;;;;;;0.68;0.68;;;10.50;99.90;;;;;;4990285;28;20707;-75
2021/03/27 09:04:26;;;;;;;0.70;0.70;;;9.90;99.90;;;;;;4931337;29;20330;-74
2021/03/27 09:07:26;;;;;;;0.90;0.90;;;9.50;99.90;;;;;;4985791;28;20208;-74
2021/03/27 09:10:36;;;;;;;0.90;0.90;;;9.30;99.90;;;;;;4991718;28;20204;-76
2021/03/27 09:13:41;;;;;;;0.90;0.90;;;9.20;99.90;;;;;;4929348;29;20390;-73
2021/03/27 09:16:43;;;;;;;0.90;0.90;;;9.00;99.90;;;;;;4990781;28;20243;-73
2021/03/27 09:19:49;;;;;;;1.00;1.00;;;8.90;99.90;;;;;;4991605;28;20296;-73
2021/03/27 09:22:49;;;;;;;0.87;0.87;;;8.90;99.90;;;;;;4931293;29;20285;-73
2021/03/27 09:25:34;;;;;;;0.90;0.90;;;8.70;99.90;;;;;;4990608;28;20676;-73
2021/03/27 09:28:23;;;;;;;0.90;0.90;;;8.70;99.90;;;;;;4995586;28;20239;-73
2021/03/27 09:31:04;;;;;;;1.07;1.07;;;8.60;99.90;;;;;;4995159;28;20227;-73
2021/03/27 09:33:34;;;;;;;0.90;0.90;;;8.60;99.90;;;;;;4995087;28;20254;-73
2021/03/27 09:36:12;;;;;;;1.00;1.00;;;8.60;99.90;;;;;;4995055;28;20224;-74
2021/03/27 09:38:48;;;;;;;0.80;0.80;;;8.70;99.90;;;;;;4995272;28;20204;-73
2021/03/27 09:41:41;;;;;;;0.80;0.80;;;8.70;99.90;;;;;;4995824;28;20227;-73
2021/03/27 09:44:47;;;;;;;0.93;0.93;;;8.80;99.90;;;;;;4995322;28;20200;-73
2021/03/27 09:47:48;;;;;;;0.80;0.80;;;9.00;99.90;;;;;;4995363;28;20627;-73
2021/03/27 09:50:26;;;;;;;0.93;0.93;;;9.30;99.90;;;;;;4995169;28;20207;-74
2021/03/27 09:53:04;;;;;;;0.80;0.80;;;9.30;99.90;;;;;;4994980;28;20266;-73
2021/03/27 09:55:40;;;;;;;0.90;0.90;;;9.40;99.90;;;;;;4994581;28;20224;-74
2021/03/27 09:58:39;;;;;;;0.85;0.85;;;9.50;99.90;;;;;;4994727;28;20262;-74
2021/03/27 10:01:24;;;;;;;0.80;0.80;;;9.80;99.90;;;;;;4994657;28;20713;-73
2021/03/27 10:04:03;;;;;;;0.80;0.80;;;9.90;99.90;;;;;;4994683;28;20636;-73
2021/03/27 10:06:59;;;;;;;0.82;0.82;;;10.00;99.90;;;;;;4992567;28;20235;-74
2021/03/27 10:09:37;;;;;;;0.80;0.80;;;10.10;99.90;;;;;;4994730;28;20200;-74
2021/03/27 10:12:12;;;;;;;0.90;0.90;;;10.10;99.90;;;;;;4986913;28;20235;-74
2021/03/27 10:14:48;;;;;;;0.80;0.80;;;10.10;99.90;;;;;;4995236;28;20270;-76
2021/03/27 10:17:22;;;;;;;0.77;0.77;;;10.30;99.90;;;;;;4996048;28;20204;-73
2021/03/27 10:19:55;;;;;;;0.80;0.80;;;10.30;99.90;;;;;;4995410;28;20207;-74
2021/03/27 10:22:33;;;;;;;0.80;0.80;;;10.20;99.90;;;;;;4995088;28;20693;-74
2021/03/27 10:25:09;;;;;;;0.77;0.77;;;10.30;99.90;;;;;;4994724;28;20215;-74
2021/03/27 10:27:54;;;;;;;0.75;0.75;;;10.30;99.90;;;;;;4994756;28;20231;-74
2021/03/27 10:30:28;;;;;;;0.90;0.90;;;10.50;99.90;;;;;;4995057;28;20851;-79
2021/03/27 10:33:12;;;;;;;0.90;0.90;;;10.60;99.90;;;;;;4996372;28;20727;-78
2021/03/27 10:36:13;;;;;;;0.70;0.70;;;10.70;99.90;;;;;;4992289;28;20254;-73
2021/03/27 10:39:01;;;;;;;0.70;0.70;;;10.80;99.90;;;;;;4988565;28;20256;-73
2021/03/27 10:41:46;;;;;;;0.70;0.70;;;10.70;99.90;;;;;;4990513;28;20710;-74
2021/03/27 10:44:26;;;;;;;0.70;0.70;;;10.60;99.90;;;;;;4990964;28;20250;-74
2021/03/27 10:47:00;;;;;;;0.77;0.77;;;10.60;99.90;;;;;;4992216;28;20527;-75
2021/03/27 10:49:38;;;;;;;0.85;0.85;;;10.50;99.90;;;;;;4994152;28;20200;-73
2021/03/27 10:52:45;;;;;;;0.70;0.70;;;11.10;99.90;;;;;;4993635;28;20778;-73
2021/03/27 10:56:02;;;;;;;0.70;0.70;;;10.80;99.90;;;;;;4993318;28;20234;-73
2021/03/27 10:58:59;;;;;;;0.80;0.80;;;11.00;99.90;;;;;;4994200;28;20686;-74
2021/03/27 11:02:17;;;;;;;0.70;0.70;;;11.10;99.90;;;;;;4995241;28;20255;-74
2021/03/27 11:05:34;;;;;;;0.70;0.70;;;11.20;97.50;;;;;;4933087;29;20245;-74
2021/03/27 11:08:32;;;;;;;0.77;0.77;;;11.50;96.30;;;;;;4922089;29;20605;-73
2021/03/27 11:11:40;;;;;;;0.70;0.70;;;11.70;96.20;;;;;;4993278;28;20582;-73
2021/03/27 11:14:32;;;;;;;0.70;0.70;;;12.00;95.70;;;;;;4993134;28;20214;-74
2021/03/27 11:17:33;;;;;;;0.70;0.70;;;12.00;94.80;;;;;;4983791;28;20290;-74
2021/03/27 11:20:20;;;;;;;0.60;0.60;;;12.20;94.90;;;;;;4993360;28;20294;-77
2021/03/27 11:23:11;;;;;;;0.60;0.60;;;12.50;94.20;;;;;;4993227;28;20208;-74
2021/03/27 11:26:16;;;;;;;0.50;0.50;;;12.60;92.70;;;;;;4963716;28;20668;-76
2021/03/27 11:28:47;;;;;;;0.60;0.60;;;12.40;89.40;;;;;;4991585;28;20290;-73
2021/03/27 11:31:25;;;;;;;0.70;0.70;;;12.30;88.00;;;;;;4990977;28;20232;-74
2021/03/27 11:34:14;;;;;;;0.70;0.70;;;12.30;87.30;;;;;;4991266;28;20918;-75
2021/03/27 11:36:46;;;;;;;0.60;0.60;;;12.40;85.60;;;;;;4991156;28;20231;-73
2021/03/27 11:39:22;;;;;;;0.80;0.80;;;12.20;85.90;;;;;;4991530;28;20668;-71
2021/03/27 11:42:00;;;;;;;0.60;0.60;;;12.00;87.00;;;;;;4991364;28;20227;-73
2021/03/27 11:44:51;;;;;;;0.80;0.80;;;11.80;86.40;;;;;;4992533;28;20258;-71
2021/03/27 11:47:30;;;;;;;0.60;0.60;;;11.90;87.40;;;;;;4992576;28;20739;-72
2021/03/27 11:50:10;;;;;;;0.70;0.70;;;11.90;87.50;;;;;;4992322;28;20616;-72
2021/03/27 11:52:43;;;;;;;0.70;0.70;;;12.00;86.80;;;;;;4992708;28;20207;-72
2021/03/27 11:55:22;;;;;;;0.70;0.70;;;12.10;84.90;;;;;;4992096;28;20224;-72
2021/03/27 11:57:53;;;;;;;0.70;0.70;;;12.20;82.40;;;;;;4992545;28;20204;-72
2021/03/27 12:01:00;;;;;;;0.65;0.65;;;12.40;93.80;;;;;;4992371;28;20736;-72
2021/03/27 12:03:35;;;;;;;0.70;0.70;;;12.50;77.40;;;;;;4992537;28;20211;-73
2021/03/27 12:06:18;;;;;;;0.70;0.70;;;12.70;77.70;;;;;;4992292;28;20420;-72
2021/03/27 12:08:56;;;;;;;0.70;0.70;;;12.90;76.20;;;;;;4992694;28;20204;-71
2021/03/27 12:11:49;;;;;;;0.70;0.70;;;13.20;75.40;;;;;;4992497;28;20231;-71
2021/03/27 12:14:22;;;;;;;0.60;0.60;;;13.20;73.80;;;;;;4992410;28;20200;-73
2021/03/27 12:16:58;;;;;;;0.63;0.63;;;13.30;73.60;;;;;;4991310;28;20271;-74
2021/03/27 12:19:31;;;;;;;0.60;0.60;;;13.30;73.10;;;;;;4992188;28;20262;-72
2021/03/27 12:22:04;;;;;;;0.50;0.50;;;13.20;73.50;;;;;;4985321;28;20633;-73
2021/03/27 12:24:42;;;;;;;0.43;0.43;;;13.00;79.50;;;;;;4973492;28;20208;-72
2021/03/27 12:27:22;;;;;;;0.70;0.70;;;12.60;88.80;;;;;;4972643;28;20627;-71
2021/03/27 12:30:00;;;;;;;0.75;0.75;;;11.90;91.00;;;;;;4972869;28;20228;-72
2021/03/27 12:32:48;;;;;;;0.70;0.70;;;11.40;90.70;;;;;;4972310;28;20232;-72
2021/03/27 12:35:29;;;;;;;0.80;0.80;;;10.90;94.40;;;;;;4972326;28;20279;-72
2021/03/27 12:38:14;;;;;;;0.98;0.98;;;10.50;99.90;;;;;;4972502;28;20247;-71
2021/03/27 12:40:51;;;;;;;0.70;0.70;;;10.70;99.90;;;;;;4972320;28;20709;-75
2021/03/27 12:43:20;;;;;;;0.80;0.80;;;10.90;99.90;;;;;;4972696;28;20212;-77
2021/03/27 12:45:50;;;;;;;0.70;0.70;;;10.80;95.00;;;;;;4972807;28;20212;-76
2021/03/27 12:48:30;;;;;;;0.70;0.70;;;11.20;93.00;;;;;;4972526;28;20653;-76
2021/03/27 12:51:13;;;;;;;0.80;0.80;;;11.40;91.30;;;;;;4972153;28;20658;-74
2021/03/27 12:54:06;;;;;;;0.80;0.80;;;11.50;99.40;;;;;;4972603;28;20189;-72
2021/03/27 12:57:28;;;;;;;0.80;0.80;;;11.60;90.40;;;;;;4972158;28;20200;-74
2021/03/27 13:00:06;;;;;;;0.70;0.70;;;12.20;93.80;;;;;;4976111;28;20713;-72
2021/03/27 13:03:10;;;;;;;0.77;0.77;;;12.10;94.00;;;;;;4994990;28;20301;-72
2021/03/27 13:05:42;;;;;;;0.77;0.77;;;12.10;80.00;;;;;;4995211;28;20199;-73
2021/03/27 13:08:32;;;;;;;0.60;0.60;;;12.10;94.80;;;;;;4995442;28;20204;-72
2021/03/27 13:11:14;;;;;;;0.60;0.60;;;12.20;80.60;;;;;;4995616;28;20227;-72
2021/03/27 13:14:20;;;;;;;0.60;0.60;;;12.40;77.30;;;;;;4995708;28;20261;-72
2021/03/27 13:16:48;;;;;;;0.63;0.63;;;12.60;92.60;;;;;;4939860;28;20683;-72
2021/03/27 13:19:24;;;;;;;0.60;0.60;;;12.60;74.90;;;;;;4995624;28;20208;-72
2021/03/27 13:22:09;;;;;;;0.73;0.73;;;12.20;70.70;;;;;;4995148;28;20270;-73
2021/03/27 13:25:17;;;;;;;0.50;0.50;;;12.20;68.60;;;;;;4995329;28;20203;-74
2021/03/27 13:27:52;;;;;;;0.80;0.80;;;12.20;90.50;;;;;;4995724;28;20208;-73
2021/03/27 13:30:27;;;;;;;0.60;0.60;;;12.20;90.30;;;;;;4995247;28;20210;-73
2021/03/27 13:33:08;;;;;;;0.60;0.60;;;12.40;89.10;;;;;;4994938;28;20296;-72
2021/03/27 13:36:10;;;;;;;0.65;0.65;;;12.70;87.30;;;;;;4994878;28;20224;-73
2021/03/27 13:38:42;;;;;;;0.60;0.60;;;13.00;86.80;;;;;;4995113;28;20270;-73
2021/03/27 13:41:20;;;;;;;0.60;0.60;;;13.00;85.60;;;;;;4994700;28;20719;-74
2021/03/27 13:43:52;;;;;;;0.70;0.70;;;13.20;65.50;;;;;;4994997;28;20211;-75
2021/03/27 13:46:24;;;;;;;0.50;0.50;;;13.10;64.30;;;;;;4994772;28;20211;-74
2021/03/27 13:49:00;;;;;;;0.70;0.70;;;12.80;85.50;;;;;;4995729;28;20212;-71
2021/03/27 13:51:34;;;;;;;0.60;0.60;;;12.80;86.80;;;;;;4994267;28;20227;-71
2021/03/27 13:54:15;;;;;;;0.80;0.80;;;11.50;84.80;;;;;;4994969;28;20211;-77
2021/03/27 13:57:06;;;;;;;0.80;0.80;;;10.20;94.00;;;;;;4999767;28;20207;-80
2021/03/27 13:59:44;;;;;;;1.05;1.05;;;9.50;99.90;;;;;;4994482;28;20286;-77
2021/03/27 14:02:44;;;;;;;0.90;0.90;;;8.70;99.90;;;;;;4990540;28;20278;-79
2021/03/27 14:05:26;;;;;;;1.10;1.10;;;8.10;99.90;;;;;;4994979;28;20243;-78
2021/03/27 14:08:04;;;;;;;1.10;1.10;;;7.90;99.90;;;;;;4996144;28;20193;-75
2021/03/27 14:10:36;;;;;;;1.20;1.20;;;7.90;99.90;;;;;;4979075;28;20244;-78
2021/03/27 14:13:12;;;;;;;1.00;1.00;;;7.50;99.90;;;;;;4978274;28;20189;-78
2021/03/27 14:15:44;;;;;;;1.20;1.20;;;7.20;99.90;;;;;;4977064;28;20577;-79
2021/03/27 14:18:44;;;;;;;1.20;1.20;;;7.10;99.90;;;;;;4976793;28;20615;-79
2021/03/27 14:21:21;;;;;;;1.40;1.40;;;6.90;99.90;;;;;;4974189;28;20229;-78
2021/03/27 14:24:37;;;;;;;1.07;1.07;;;6.80;99.90;;;;;;4977769;28;20197;-78
2021/03/27 14:27:16;;;;;;;1.23;1.23;;;7.00;99.90;;;;;;4946373;28;20317;-79
2021/03/27 14:29:50;;;;;;;1.30;1.30;;;7.20;99.90;;;;;;4983770;28;20193;-78
2021/03/27 14:32:29;;;;;;;1.00;1.00;;;7.40;99.90;;;;;;4992217;28;20225;-79
2021/03/27 14:35:12;;;;;;;1.00;1.00;;;7.50;99.90;;;;;;4984014;28;20232;-79
2021/03/27 14:37:47;;;;;;;1.30;1.30;;;7.70;99.90;;;;;;4979184;28;20328;-78
2021/03/27 14:40:33;;;;;;;1.30;1.30;;;7.80;99.90;;;;;;4986582;28;20250;-79
2021/03/27 14:43:27;;;;;;;1.10;1.10;;;7.90;99.90;;;;;;4999953;28;20188;-80
2021/03/27 14:46:22;;;;;;;1.10;1.10;;;7.90;99.90;;;;;;4995854;28;20200;-79
2021/03/27 14:49:13;;;;;;;1.10;1.10;;;7.90;99.90;;;;;;4993704;28;20204;-80
2021/03/27 14:51:49;;;;;;;1.07;1.07;;;8.00;99.90;;;;;;4996285;28;20232;-78
2021/03/27 14:54:38;;;;;;;0.90;0.90;;;8.10;99.90;;;;;;4994790;28;20219;-75
2021/03/27 14:57:16;;;;;;;1.03;1.03;;;8.50;99.90;;;;;;4997412;28;20228;-79
2021/03/27 14:59:45;;;;;;;1.00;1.00;;;8.30;99.90;;;;;;4987525;28;20207;-77
2021/03/27 15:02:32;;;;;;;1.00;1.00;;;8.20;99.90;;;;;;4987660;28;20308;-77
2021/03/27 15:05:18;;;;;;;1.27;1.27;;;8.10;99.90;;;;;;4985849;28;20611;-79
2021/03/27 15:07:59;;;;;;;1.20;1.20;;;8.00;99.90;;;;;;4996093;28;20188;-77
2021/03/27 15:10:53;;;;;;;1.03;1.03;;;8.20;99.90;;;;;;4994538;28;20258;-74
2021/03/27 15:13:46;;;;;;;0.90;0.90;;;8.00;99.90;;;;;;4992575;28;20259;-80
2021/03/27 16:13:51;;;;;;;1.40;1.40;;;7.90;99.90;;;;;;5129873;27;20454;-74
2021/03/27 16:16:43;;;;;;;1.50;1.50;;;8.00;99.40;;;;;;5129899;27;20832;-74
2021/03/27 16:19:31;;;;;;;1.17;1.17;;;7.90;99.90;;;;;;5129695;28;20191;-73
2021/03/27 16:22:08;;;;;;;1.20;1.20;;;7.80;99.90;;;;;;5129173;28;20687;-75
2021/03/27 16:24:52;;;;;;;1.00;1.00;;;7.80;99.90;;;;;;5129504;27;20659;-77
2021/03/27 16:27:29;;;;;;;1.07;1.07;;;7.70;99.90;;;;;;5129315;28;20191;-76
2021/03/27 16:30:02;;;;;;;1.37;1.37;;;7.60;99.90;;;;;;5127372;28;20186;-79
2021/03/27 16:32:48;;;;;;;1.27;1.27;;;7.60;99.60;;;;;;5130733;27;20681;-76
2021/03/27 16:35:21;;;;;;;1.00;1.00;;;7.40;99.90;;;;;;5130388;27;20236;-76
2021/03/27 16:38:00;;;;;;;1.23;1.23;;;7.60;99.90;;;;;;5130212;27;20236;-74
2021/03/27 16:40:38;;;;;;;1.10;1.10;;;7.60;99.90;;;;;;5126998;28;20188;-75
2021/03/27 16:43:10;;;;;;;1.30;1.30;;;7.50;99.90;;;;;;5125109;28;20596;-75
2021/03/27 16:46:21;;;;;;;1.40;1.40;;;6.30;99.90;;;;;;5127750;28;20191;-74
2021/03/27 16:49:10;;;;;;;1.27;1.27;;;6.10;99.90;;;;;;5065891;28;20220;-75
2021/03/27 16:51:50;;;;;;;1.60;1.60;;;5.50;99.90;;;;;;5063748;28;20217;-73
2021/03/27 16:54:38;;;;;;;1.50;1.50;;;5.20;99.90;;;;;;5113752;27;20191;-74
2021/03/27 16:57:17;;;;;;;1.40;1.40;;;5.00;99.90;;;;;;5119453;28;20282;-75
2021/03/27 16:59:56;;;;;;;1.40;1.40;;;5.00;99.90;;;;;;5109135;28;20203;-74
2021/03/27 17:02:37;;;;;;;1.50;1.50;;;5.00;99.90;;;;;;5108910;28;20710;-74
2021/03/27 17:05:38;;;;;;;1.50;1.50;;;4.90;99.90;;;;;;5125437;28;20344;-75
2021/03/27 17:08:17;;;;;;;1.43;1.43;;;4.90;99.90;;;;;;5129407;27;20191;-73
2021/03/27 17:10:47;;;;;;;1.70;1.70;;;4.80;99.90;;;;;;5128962;27;20660;-74
2021/03/27 17:13:21;;;;;;;1.40;1.40;;;4.90;99.90;;;;;;5129704;27;20199;-73
2021/03/27 17:16:20;;;;;;;1.40;1.40;;;4.90;99.90;;;;;;5129180;27;20218;-74
2021/03/27 17:19:17;;;;;;;1.40;1.40;;;4.90;99.90;;;;;;5108577;28;20212;-74
2021/03/27 17:22:06;;;;;;;1.40;1.40;;;4.90;99.90;;;;;;5108403;28;20236;-74
2021/03/27 17:24:39;;;;;;;1.40;1.40;;;4.90;99.90;;;;;;5095869;28;20197;-75
2021/03/27 17:27:13;;;;;;;1.20;1.20;;;4.90;99.90;;;;;;5095035;28;20295;-74
2021/03/27 17:29:46;;;;;;;1.60;1.60;;;4.90;99.90;;;;;;5094653;28;20201;-74
2021/03/27 17:32:36;;;;;;;1.20;1.20;;;5.00;99.90;;;;;;5094696;28;20216;-74
2021/03/27 17:35:12;;;;;;;1.30;1.30;;;5.10;99.90;;;;;;5108467;28;20656;-74
2021/03/27 17:37:48;;;;;;;1.30;1.30;;;5.00;99.90;;;;;;5113981;28;20192;-75
2021/03/27 17:40:36;;;;;;;1.30;1.30;;;5.10;99.90;;;;;;5112636;28;20230;-74
2021/03/27 17:43:11;;;;;;;1.53;1.53;;;5.20;99.90;;;;;;5114850;28;20211;-76
2021/03/27 17:45:43;;;;;;;1.23;1.23;;;5.30;99.90;;;;;;5114654;28;20641;-76
2021/03/27 17:48:20;;;;;;;1.37;1.37;;;5.40;99.90;;;;;;5114935;28;20196;-76
2021/03/27 17:50:57;;;;;;;1.40;1.40;;;5.30;99.90;;;;;;5114748;27;20219;-76
2021/03/27 17:53:44;;;;;;;1.20;1.20;;;5.40;99.90;;;;;;5114717;28;20200;-76
2021/03/27 17:56:17;;;;;;;1.23;1.23;;;5.20;99.90;;;;;;5114698;28;20268;-80
2021/03/27 17:58:49;;;;;;;1.23;1.23;;;5.30;99.90;;;;;;5114736;28;20192;-76
2021/03/27 18:01:20;;;;;;;1.40;1.40;;;5.30;99.90;;;;;;5114592;28;20224;-75
2021/03/27 18:04:07;;;;;;;1.30;1.30;;;5.30;99.90;;;;;;5114512;28;20784;-75
2021/03/27 18:06:42;;;;;;;1.20;1.20;;;5.40;99.90;;;;;;5106372;28;20188;-74
2021/03/27 18:09:12;;;;;;;1.10;1.10;;;5.60;99.90;;;;;;5114634;27;20187;-74
2021/03/27 18:11:56;;;;;;;1.43;1.43;;;5.50;99.90;;;;;;5114110;28;20216;-74
2021/03/27 18:14:31;;;;;;;1.17;1.17;;;5.50;99.90;;;;;;5114006;28;20200;-75
2021/03/27 18:17:11;;;;;;;1.50;1.50;;;5.60;99.90;;;;;;5113956;28;20199;-74
2021/03/27 18:19:44;;;;;;;1.33;1.33;;;5.60;99.90;;;;;;5113521;28;20609;-77
2021/03/27 18:22:25;;;;;;;1.30;1.30;;;5.60;99.90;;;;;;5113787;28;20216;-76
2021/03/27 18:25:03;;;;;;;1.40;1.40;;;5.60;99.90;;;;;;5112972;28;20268;-74
2021/03/27 18:27:34;;;;;;;1.33;1.33;;;5.60;99.90;;;;;;5113460;28;20721;-74
2021/03/27 18:30:22;;;;;;;1.23;1.23;;;5.50;99.90;;;;;;5113366;28;20207;-74
2021/03/27 18:33:14;;;;;;;1.30;1.30;;;5.60;99.90;;;;;;5113962;28;20679;-74
2021/03/27 18:35:43;;;;;;;1.20;1.20;;;5.30;99.90;;;;;;5112077;27;20661;-74
2021/03/27 18:38:50;;;;;;;1.20;1.20;;;5.60;99.90;;;;;;5113411;28;20204;-73
2021/03/27 18:41:22;;;;;;;1.40;1.40;;;5.60;99.90;;;;;;5095550;28;20272;-73
2021/03/27 18:43:59;;;;;;;1.47;1.47;;;5.50;99.90;;;;;;5113282;28;20192;-73
2021/03/27 18:46:27;;;;;;;1.37;1.37;;;5.40;99.90;;;;;;5112873;28;20252;-73
2021/03/27 18:49:03;;;;;;;1.30;1.30;;;5.30;99.90;;;;;;5112994;28;20196;-73
2021/03/27 18:51:39;;;;;;;1.20;1.20;;;5.30;99.90;;;;;;5112799;28;20223;-73
2021/03/27 18:54:10;;;;;;;1.30;1.30;;;5.30;99.90;;;;;;5113130;28;20211;-73
2021/03/27 18:56:42;;;;;;;1.40;1.40;;;5.30;99.90;;;;;;5112646;28;20212;-74
2021/03/27 18:59:19;;;;;;;1.60;1.60;;;5.30;99.90;;;;;;5112846;28;20253;-73
2021/03/27 19:01:48;;;;;;;1.40;1.40;;;5.20;99.90;;;;;;5112544;28;20276;-73
2021/03/27 19:04:32;;;;;;;1.40;1.40;;;5.30;99.90;;;;;;5108348;27;20549;-74
2021/03/27 19:07:04;;;;;;;1.40;1.40;;;5.20;99.90;;;;;;5100904;28;20209;-74
2021/03/27 19:09:49;;;;;;;1.33;1.33;;;5.20;99.90;;;;;;5091704;28;20201;-74
2021/03/27 19:12:25;;;;;;;1.60;1.60;;;5.30;99.90;;;;;;5091850;28;20232;-74
2021/03/27 19:14:56;;;;;;;1.50;1.50;;;5.30;99.90;;;;;;5092035;28;20200;-74
2021/03/27 19:17:27;;;;;;;1.30;1.30;;;5.40;99.90;;;;;;5091279;28;20541;-74
2021/03/27 19:19:58;;;;;;;1.30;1.30;;;5.40;99.90;;;;;;5091697;28;20204;-74
2021/03/27 19:22:32;;;;;;;1.33;1.33;;;5.40;99.90;;;;;;5091574;28;20224;-74
2021/03/27 19:25:23;;;;;;;1.43;1.43;;;5.50;99.90;;;;;;5091082;28;20207;-74
2021/03/27 19:27:55;;;;;;;1.40;1.40;;;5.50;99.90;;;;;;5091782;28;20261;-74
2021/03/27 19:30:42;;;;;;;1.20;1.20;;;5.50;99.90;;;;;;5091503;28;20205;-74
2021/03/27 19:33:15;;;;;;;1.33;1.33;;;5.70;99.90;;;;;;5092173;28;20196;-74
2021/03/27 19:35:48;;;;;;;1.27;1.27;;;5.70;99.90;;;;;;5091177;28;20222;-74
2021/03/27 19:38:29;;;;;;;1.20;1.20;;;5.70;99.90;;;;;;5091879;28;20212;-75
2021/03/27 19:41:01;;;;;;;1.10;1.10;;;5.70;99.90;;;;;;5091259;28;20224;-74
2021/03/27 19:43:32;;;;;;;1.23;1.23;;;5.80;99.90;;;;;;5091426;28;20216;-74
2021/03/27 19:46:13;;;;;;;1.40;1.40;;;5.80;99.90;;;;;;5090913;28;20212;-73
2021/03/27 19:48:47;;;;;;;1.30;1.30;;;5.80;99.90;;;;;;5091716;28;20204;-73
2021/03/27 19:51:33;;;;;;;1.40;1.40;;;5.90;99.90;;;;;;5091586;28;20221;-74
2021/03/27 19:54:21;;;;;;;1.50;1.50;;;5.90;99.90;;;;;;5091599;28;20205;-74
2021/03/27 19:56:59;;;;;;;1.40;1.40;;;5.90;99.90;;;;;;5091306;28;20867;-74
2021/03/27 19:59:37;;;;;;;1.40;1.40;;;5.90;99.90;;;;;;5091495;28;20672;-74
2021/03/27 20:02:07;;;;;;;1.00;1.00;;;5.90;99.90;;;;;;5091235;28;20251;-75
2021/03/27 20:04:44;;;;;;;1.33;1.33;;;5.90;99.90;;;;;;5091319;28;20239;-74
2021/03/27 20:07:14;;;;;;;1.50;1.50;;;5.90;99.90;;;;;;5091504;28;20208;-74
2021/03/27 20:09:46;;;;;;;1.10;1.10;;;5.90;99.90;;;;;;5091421;28;20205;-74
2021/03/27 20:12:28;;;;;;;1.37;1.37;;;5.90;99.90;;;;;;5091034;28;20282;-74
2021/03/27 20:15:28;;;;;;;1.40;1.40;;;5.90;99.90;;;;;;5091337;28;20253;-74
2021/03/27 20:18:06;;;;;;;1.30;1.30;;;5.90;99.90;;;;;;5091044;28;20618;-74
2021/03/27 20:21:16;;;;;;;1.40;1.40;;;5.90;99.90;;;;;;5091047;28;20565;-74
2021/03/27 20:24:19;;;;;;;1.37;1.37;;;5.90;99.90;;;;;;5090799;28;20709;-74
2021/03/27 20:27:02;;;;;;;1.30;1.30;;;5.90;99.90;;;;;;5087285;28;20205;-73
2021/03/27 20:30:00;;;;;;;1.43;1.43;;;5.90;99.90;;;;;;5091083;28;20205;-74
2021/03/27 20:32:34;;;;;;;1.37;1.37;;;5.90;99.90;;;;;;5090866;28;20561;-74
2021/03/27 20:35:16;;;;;;;1.20;1.20;;;5.90;99.90;;;;;;5090670;28;20858;-74
2021/03/27 20:37:52;;;;;;;1.50;1.50;;;5.70;99.90;;;;;;5090987;28;20219;-74